sensor_id;sensor_type;location;lat;lon;timestamp;P1;durP1;ratioP1;P2;durP2;ratioP2
75038;SDS011;63609;49.992;14.512;2024-02-28T00:03:29;26.20;;;10.68;;
75038;SDS011;63609;49.992;14.512;2024-02-28T00:05:58;26.25;;;11.18;;
75038;SDS011;63609;49.992;14.512;2024-02-28T00:08:25;27.52;;;12.45;;
75038;SDS011;63609;49.992;14.512;2024-02-28T00:10:52;22.35;;;9.82;;
75038;SDS011;63609;49.992;14.512;2024-02-28T00:13:19;27.23;;;11.27;;
75038;SDS011;63609;49.992;14.512;2024-02-28T00:15:47;23.23;;;10.48;;
75038;SDS011;63609;49.992;14.512;2024-02-28T00:18:14;24.05;;;9.98;;
75038;SDS011;63609;49.992;14.512;2024-02-28T00:20:41;24.60;;;10.90;;
75038;SDS011;63609;49.992;14.512;2024-02-28T00:23:07;23.50;;;9.77;;
75038;SDS011;63609;49.992;14.512;2024-02-28T00:25:35;25.08;;;10.77;;
75038;SDS011;63609;49.992;14.512;2024-02-28T00:28:02;27.90;;;11.00;;
75038;SDS011;63609;49.992;14.512;2024-02-28T00:30:30;28.25;;;11.68;;
75038;SDS011;63609;49.992;14.512;2024-02-28T00:32:56;22.08;;;10.77;;
75038;SDS011;63609;49.992;14.512;2024-02-28T00:35:23;24.15;;;10.23;;
75038;SDS011;63609;49.992;14.512;2024-02-28T00:37:50;22.58;;;11.18;;
75038;SDS011;63609;49.992;14.512;2024-02-28T00:40:17;25.05;;;10.82;;
75038;SDS011;63609;49.992;14.512;2024-02-28T00:42:44;26.58;;;11.27;;
75038;SDS011;63609;49.992;14.512;2024-02-28T00:45:12;27.00;;;12.15;;
75038;SDS011;63609;49.992;14.512;2024-02-28T00:47:39;28.52;;;12.38;;
75038;SDS011;63609;49.992;14.512;2024-02-28T00:50:09;25.17;;;10.95;;
75038;SDS011;63609;49.992;14.512;2024-02-28T00:52:38;28.27;;;11.90;;
75038;SDS011;63609;49.992;14.512;2024-02-28T00:55:05;28.58;;;12.63;;
75038;SDS011;63609;49.992;14.512;2024-02-28T00:57:32;24.58;;;10.93;;
75038;SDS011;63609;49.992;14.512;2024-02-28T00:59:59;29.33;;;11.95;;
75038;SDS011;63609;49.992;14.512;2024-02-28T01:03:31;20.85;;;8.82;;
75038;SDS011;63609;49.992;14.512;2024-02-28T01:05:58;24.65;;;11.80;;
75038;SDS011;63609;49.992;14.512;2024-02-28T01:08:27;22.05;;;10.70;;
75038;SDS011;63609;49.992;14.512;2024-02-28T01:10:54;22.67;;;10.50;;
75038;SDS011;63609;49.992;14.512;2024-02-28T01:13:21;23.92;;;10.45;;
75038;SDS011;63609;49.992;14.512;2024-02-28T01:15:48;27.27;;;11.80;;
75038;SDS011;63609;49.992;14.512;2024-02-28T01:18:15;23.38;;;9.27;;
75038;SDS011;63609;49.992;14.512;2024-02-28T01:20:42;26.58;;;12.23;;
75038;SDS011;63609;49.992;14.512;2024-02-28T01:25:37;25.02;;;11.27;;
75038;SDS011;63609;49.992;14.512;2024-02-28T01:28:04;20.95;;;9.68;;
75038;SDS011;63609;49.992;14.512;2024-02-28T01:30:31;20.52;;;9.13;;
75038;SDS011;63609;49.992;14.512;2024-02-28T01:32:58;20.75;;;11.35;;
75038;SDS011;63609;49.992;14.512;2024-02-28T01:35:29;24.40;;;10.27;;
75038;SDS011;63609;49.992;14.512;2024-02-28T01:37:56;20.17;;;11.15;;
75038;SDS011;63609;49.992;14.512;2024-02-28T01:40:23;21.95;;;9.70;;
75038;SDS011;63609;49.992;14.512;2024-02-28T01:42:49;23.98;;;10.35;;
75038;SDS011;63609;49.992;14.512;2024-02-28T01:45:17;21.10;;;9.52;;
75038;SDS011;63609;49.992;14.512;2024-02-28T01:47:44;25.90;;;11.13;;
75038;SDS011;63609;49.992;14.512;2024-02-28T01:50:11;26.77;;;11.05;;
75038;SDS011;63609;49.992;14.512;2024-02-28T01:52:38;22.13;;;9.43;;
75038;SDS011;63609;49.992;14.512;2024-02-28T01:55:06;23.30;;;9.95;;
75038;SDS011;63609;49.992;14.512;2024-02-28T01:57:34;19.02;;;9.15;;
75038;SDS011;63609;49.992;14.512;2024-02-28T02:00:04;22.95;;;9.85;;
75038;SDS011;63609;49.992;14.512;2024-02-28T02:02:34;19.90;;;9.20;;
75038;SDS011;63609;49.992;14.512;2024-02-28T02:05:01;21.17;;;8.57;;
75038;SDS011;63609;49.992;14.512;2024-02-28T02:07:28;17.77;;;9.00;;
75038;SDS011;63609;49.992;14.512;2024-02-28T02:09:55;21.25;;;9.02;;
75038;SDS011;63609;49.992;14.512;2024-02-28T02:12:22;19.33;;;9.65;;
75038;SDS011;63609;49.992;14.512;2024-02-28T02:14:50;21.42;;;8.98;;
75038;SDS011;63609;49.992;14.512;2024-02-28T02:17:16;20.80;;;9.13;;
75038;SDS011;63609;49.992;14.512;2024-02-28T02:19:45;23.13;;;9.90;;
75038;SDS011;63609;49.992;14.512;2024-02-28T02:22:13;24.40;;;10.88;;
75038;SDS011;63609;49.992;14.512;2024-02-28T02:24:41;21.73;;;9.90;;
75038;SDS011;63609;49.992;14.512;2024-02-28T02:27:08;19.15;;;9.68;;
75038;SDS011;63609;49.992;14.512;2024-02-28T02:29:35;23.92;;;10.57;;
75038;SDS011;63609;49.992;14.512;2024-02-28T02:34:29;22.67;;;10.07;;
75038;SDS011;63609;49.992;14.512;2024-02-28T02:36:56;18.13;;;9.73;;
75038;SDS011;63609;49.992;14.512;2024-02-28T02:39:23;25.02;;;10.13;;
75038;SDS011;63609;49.992;14.512;2024-02-28T02:41:49;18.95;;;8.60;;
75038;SDS011;63609;49.992;14.512;2024-02-28T02:44:17;19.83;;;9.98;;
75038;SDS011;63609;49.992;14.512;2024-02-28T02:49:10;18.27;;;8.25;;
75038;SDS011;63609;49.992;14.512;2024-02-28T02:51:38;17.75;;;8.27;;
75038;SDS011;63609;49.992;14.512;2024-02-28T02:54:05;17.65;;;8.65;;
75038;SDS011;63609;49.992;14.512;2024-02-28T02:56:32;20.40;;;8.85;;
75038;SDS011;63609;49.992;14.512;2024-02-28T02:59:00;17.50;;;7.82;;
75038;SDS011;63609;49.992;14.512;2024-02-28T03:01:27;19.15;;;9.40;;
75038;SDS011;63609;49.992;14.512;2024-02-28T03:06:20;15.73;;;7.50;;
75038;SDS011;63609;49.992;14.512;2024-02-28T03:08:50;19.08;;;8.63;;
75038;SDS011;63609;49.992;14.512;2024-02-28T03:11:18;15.80;;;8.80;;
75038;SDS011;63609;49.992;14.512;2024-02-28T03:13:45;21.42;;;9.77;;
75038;SDS011;63609;49.992;14.512;2024-02-28T03:16:12;18.42;;;8.95;;
75038;SDS011;63609;49.992;14.512;2024-02-28T03:18:39;20.58;;;10.02;;
75038;SDS011;63609;49.992;14.512;2024-02-28T03:21:05;20.67;;;9.30;;
75038;SDS011;63609;49.992;14.512;2024-02-28T03:25:59;14.57;;;8.18;;
75038;SDS011;63609;49.992;14.512;2024-02-28T03:28:26;21.33;;;8.65;;
75038;SDS011;63609;49.992;14.512;2024-02-28T03:33:20;15.00;;;7.78;;
75038;SDS011;63609;49.992;14.512;2024-02-28T03:35:46;17.45;;;8.93;;
75038;SDS011;63609;49.992;14.512;2024-02-28T03:40:40;14.18;;;6.97;;
75038;SDS011;63609;49.992;14.512;2024-02-28T03:43:07;19.20;;;8.07;;
75038;SDS011;63609;49.992;14.512;2024-02-28T03:48:05;21.25;;;8.02;;
75038;SDS011;63609;49.992;14.512;2024-02-28T03:50:32;16.13;;;7.88;;
75038;SDS011;63609;49.992;14.512;2024-02-28T03:52:59;15.23;;;7.07;;
75038;SDS011;63609;49.992;14.512;2024-02-28T03:55:26;16.48;;;8.20;;
75038;SDS011;63609;49.992;14.512;2024-02-28T03:57:55;15.60;;;8.15;;
75038;SDS011;63609;49.992;14.512;2024-02-28T04:00:21;17.55;;;7.60;;
75038;SDS011;63609;49.992;14.512;2024-02-28T04:02:48;10.45;;;5.25;;
75038;SDS011;63609;49.992;14.512;2024-02-28T04:05:16;17.30;;;8.15;;
75038;SDS011;63609;49.992;14.512;2024-02-28T04:07:45;16.45;;;8.55;;
75038;SDS011;63609;49.992;14.512;2024-02-28T04:10:11;19.15;;;8.90;;
75038;SDS011;63609;49.992;14.512;2024-02-28T04:15:05;16.33;;;7.75;;
75038;SDS011;63609;49.992;14.512;2024-02-28T04:17:32;16.85;;;8.25;;
75038;SDS011;63609;49.992;14.512;2024-02-28T04:19:59;15.02;;;8.65;;
75038;SDS011;63609;49.992;14.512;2024-02-28T04:22:29;18.15;;;8.02;;
75038;SDS011;63609;49.992;14.512;2024-02-28T04:24:56;18.33;;;8.75;;
75038;SDS011;63609;49.992;14.512;2024-02-28T04:27:23;18.85;;;8.38;;
75038;SDS011;63609;49.992;14.512;2024-02-28T04:32:16;20.73;;;8.63;;
75038;SDS011;63609;49.992;14.512;2024-02-28T04:34:43;15.32;;;6.28;;
75038;SDS011;63609;49.992;14.512;2024-02-28T04:37:10;18.75;;;8.90;;
75038;SDS011;63609;49.992;14.512;2024-02-28T04:39:37;19.85;;;9.50;;
75038;SDS011;63609;49.992;14.512;2024-02-28T04:42:04;19.77;;;9.52;;
75038;SDS011;63609;49.992;14.512;2024-02-28T04:44:31;20.25;;;9.65;;
75038;SDS011;63609;49.992;14.512;2024-02-28T04:46:59;19.98;;;8.95;;
75038;SDS011;63609;49.992;14.512;2024-02-28T04:49:26;16.25;;;8.93;;
75038;SDS011;63609;49.992;14.512;2024-02-28T04:51:52;16.20;;;8.48;;
75038;SDS011;63609;49.992;14.512;2024-02-28T04:54:19;18.83;;;9.60;;
75038;SDS011;63609;49.992;14.512;2024-02-28T04:56:46;19.00;;;8.07;;
75038;SDS011;63609;49.992;14.512;2024-02-28T04:59:13;19.52;;;7.72;;
75038;SDS011;63609;49.992;14.512;2024-02-28T05:01:40;13.73;;;7.35;;
75038;SDS011;63609;49.992;14.512;2024-02-28T05:04:09;19.27;;;8.90;;
75038;SDS011;63609;49.992;14.512;2024-02-28T05:06:35;20.35;;;9.80;;
75038;SDS011;63609;49.992;14.512;2024-02-28T05:09:06;23.33;;;10.00;;
75038;SDS011;63609;49.992;14.512;2024-02-28T05:11:33;18.77;;;9.02;;
75038;SDS011;63609;49.992;14.512;2024-02-28T05:14:00;13.32;;;6.72;;
75038;SDS011;63609;49.992;14.512;2024-02-28T05:16:27;14.80;;;7.95;;
75038;SDS011;63609;49.992;14.512;2024-02-28T05:18:54;12.07;;;6.43;;
75038;SDS011;63609;49.992;14.512;2024-02-28T05:21:21;19.65;;;9.43;;
75038;SDS011;63609;49.992;14.512;2024-02-28T05:23:48;19.67;;;8.13;;
75038;SDS011;63609;49.992;14.512;2024-02-28T05:26:15;18.65;;;9.35;;
75038;SDS011;63609;49.992;14.512;2024-02-28T05:31:20;14.27;;;7.40;;
75038;SDS011;63609;49.992;14.512;2024-02-28T05:36:18;18.73;;;7.50;;
75038;SDS011;63609;49.992;14.512;2024-02-28T05:38:45;15.48;;;6.90;;
75038;SDS011;63609;49.992;14.512;2024-02-28T05:41:12;15.30;;;7.45;;
75038;SDS011;63609;49.992;14.512;2024-02-28T05:43:40;16.92;;;8.38;;
75038;SDS011;63609;49.992;14.512;2024-02-28T05:46:07;16.65;;;7.78;;
75038;SDS011;63609;49.992;14.512;2024-02-28T05:48:34;18.52;;;8.70;;
75038;SDS011;63609;49.992;14.512;2024-02-28T05:51:01;21.10;;;9.60;;
75038;SDS011;63609;49.992;14.512;2024-02-28T05:53:29;20.20;;;9.50;;
75038;SDS011;63609;49.992;14.512;2024-02-28T05:56:02;18.92;;;8.95;;
75038;SDS011;63609;49.992;14.512;2024-02-28T05:58:29;19.48;;;9.02;;
75038;SDS011;63609;49.992;14.512;2024-02-28T06:00:56;20.95;;;10.90;;
75038;SDS011;63609;49.992;14.512;2024-02-28T06:03:24;23.95;;;9.73;;
75038;SDS011;63609;49.992;14.512;2024-02-28T06:05:51;19.38;;;8.88;;
75038;SDS011;63609;49.992;14.512;2024-02-28T06:08:20;22.88;;;9.15;;
75038;SDS011;63609;49.992;14.512;2024-02-28T06:10:47;22.00;;;9.02;;
75038;SDS011;63609;49.992;14.512;2024-02-28T06:13:14;19.92;;;8.70;;
75038;SDS011;63609;49.992;14.512;2024-02-28T06:15:41;17.45;;;8.98;;
75038;SDS011;63609;49.992;14.512;2024-02-28T06:18:09;19.92;;;9.13;;
75038;SDS011;63609;49.992;14.512;2024-02-28T06:20:37;20.23;;;9.90;;
75038;SDS011;63609;49.992;14.512;2024-02-28T06:23:04;18.92;;;8.35;;
75038;SDS011;63609;49.992;14.512;2024-02-28T06:25:42;21.13;;;9.30;;
75038;SDS011;63609;49.992;14.512;2024-02-28T06:28:09;16.85;;;8.52;;
75038;SDS011;63609;49.992;14.512;2024-02-28T06:30:38;17.02;;;8.57;;
75038;SDS011;63609;49.992;14.512;2024-02-28T06:33:05;15.20;;;7.30;;
75038;SDS011;63609;49.992;14.512;2024-02-28T06:37:58;17.70;;;7.25;;
75038;SDS011;63609;49.992;14.512;2024-02-28T06:45:23;18.92;;;8.50;;
75038;SDS011;63609;49.992;14.512;2024-02-28T06:47:50;14.80;;;7.65;;
75038;SDS011;63609;49.992;14.512;2024-02-28T06:50:17;19.95;;;9.13;;
75038;SDS011;63609;49.992;14.512;2024-02-28T06:52:44;21.42;;;10.30;;
75038;SDS011;63609;49.992;14.512;2024-02-28T06:55:11;16.98;;;8.45;;
75038;SDS011;63609;49.992;14.512;2024-02-28T06:57:40;14.10;;;7.15;;
75038;SDS011;63609;49.992;14.512;2024-02-28T07:00:09;18.02;;;7.85;;
75038;SDS011;63609;49.992;14.512;2024-02-28T07:02:47;15.95;;;7.25;;
75038;SDS011;63609;49.992;14.512;2024-02-28T07:05:14;19.88;;;8.98;;
75038;SDS011;63609;49.992;14.512;2024-02-28T07:07:41;19.27;;;8.63;;
75038;SDS011;63609;49.992;14.512;2024-02-28T07:10:07;21.00;;;8.18;;
75038;SDS011;63609;49.992;14.512;2024-02-28T07:12:35;18.90;;;7.97;;
75038;SDS011;63609;49.992;14.512;2024-02-28T07:15:02;16.60;;;8.10;;
75038;SDS011;63609;49.992;14.512;2024-02-28T07:17:29;16.00;;;6.57;;
75038;SDS011;63609;49.992;14.512;2024-02-28T07:19:56;15.18;;;8.25;;
75038;SDS011;63609;49.992;14.512;2024-02-28T07:24:49;18.02;;;7.35;;
75038;SDS011;63609;49.992;14.512;2024-02-28T07:27:16;16.45;;;8.30;;
75038;SDS011;63609;49.992;14.512;2024-02-28T07:29:43;16.35;;;7.88;;
75038;SDS011;63609;49.992;14.512;2024-02-28T07:32:10;16.98;;;7.95;;
75038;SDS011;63609;49.992;14.512;2024-02-28T07:34:38;17.35;;;7.53;;
75038;SDS011;63609;49.992;14.512;2024-02-28T07:37:06;16.60;;;7.22;;
75038;SDS011;63609;49.992;14.512;2024-02-28T07:39:33;15.13;;;7.20;;
75038;SDS011;63609;49.992;14.512;2024-02-28T07:42:01;15.52;;;8.27;;
75038;SDS011;63609;49.992;14.512;2024-02-28T07:44:28;17.63;;;8.20;;
75038;SDS011;63609;49.992;14.512;2024-02-28T07:46:57;14.98;;;7.93;;
75038;SDS011;63609;49.992;14.512;2024-02-28T07:49:25;14.10;;;7.07;;
75038;SDS011;63609;49.992;14.512;2024-02-28T07:51:54;17.45;;;8.48;;
75038;SDS011;63609;49.992;14.512;2024-02-28T07:54:21;17.63;;;8.90;;
75038;SDS011;63609;49.992;14.512;2024-02-28T07:56:48;16.63;;;7.82;;
75038;SDS011;63609;49.992;14.512;2024-02-28T07:59:15;21.15;;;8.07;;
75038;SDS011;63609;49.992;14.512;2024-02-28T08:01:42;14.18;;;7.13;;
75038;SDS011;63609;49.992;14.512;2024-02-28T08:04:10;15.55;;;7.68;;
75038;SDS011;63609;49.992;14.512;2024-02-28T08:06:39;18.58;;;7.95;;
75038;SDS011;63609;49.992;14.512;2024-02-28T08:09:07;14.02;;;7.57;;
75038;SDS011;63609;49.992;14.512;2024-02-28T08:11:36;16.73;;;7.75;;
75038;SDS011;63609;49.992;14.512;2024-02-28T08:14:02;15.90;;;7.57;;
75038;SDS011;63609;49.992;14.512;2024-02-28T08:16:30;18.67;;;8.18;;
75038;SDS011;63609;49.992;14.512;2024-02-28T08:18:58;16.95;;;7.60;;
75038;SDS011;63609;49.992;14.512;2024-02-28T08:21:26;15.10;;;7.03;;
75038;SDS011;63609;49.992;14.512;2024-02-28T08:23:53;15.25;;;7.38;;
75038;SDS011;63609;49.992;14.512;2024-02-28T08:26:21;15.75;;;7.47;;
75038;SDS011;63609;49.992;14.512;2024-02-28T08:28:49;12.00;;;6.63;;
75038;SDS011;63609;49.992;14.512;2024-02-28T08:31:16;14.07;;;7.72;;
75038;SDS011;63609;49.992;14.512;2024-02-28T08:33:43;14.23;;;7.30;;
75038;SDS011;63609;49.992;14.512;2024-02-28T08:36:10;16.90;;;7.70;;
75038;SDS011;63609;49.992;14.512;2024-02-28T08:41:05;10.27;;;5.95;;
75038;SDS011;63609;49.992;14.512;2024-02-28T08:43:37;12.38;;;6.40;;
75038;SDS011;63609;49.992;14.512;2024-02-28T08:46:05;15.77;;;6.63;;
75038;SDS011;63609;49.992;14.512;2024-02-28T08:48:33;12.70;;;6.72;;
75038;SDS011;63609;49.992;14.512;2024-02-28T08:51:00;14.15;;;7.03;;
75038;SDS011;63609;49.992;14.512;2024-02-28T08:55:54;12.13;;;6.70;;
75038;SDS011;63609;49.992;14.512;2024-02-28T08:58:21;15.98;;;7.10;;
75038;SDS011;63609;49.992;14.512;2024-02-28T09:00:48;14.13;;;7.10;;
75038;SDS011;63609;49.992;14.512;2024-02-28T09:03:16;15.02;;;7.55;;
75038;SDS011;63609;49.992;14.512;2024-02-28T09:05:43;12.07;;;6.20;;
75038;SDS011;63609;49.992;14.512;2024-02-28T09:08:10;11.38;;;6.70;;
75038;SDS011;63609;49.992;14.512;2024-02-28T09:10:41;9.80;;;5.25;;
75038;SDS011;63609;49.992;14.512;2024-02-28T09:13:08;13.65;;;7.28;;
75038;SDS011;63609;49.992;14.512;2024-02-28T09:15:36;14.13;;;6.82;;
75038;SDS011;63609;49.992;14.512;2024-02-28T09:18:04;13.43;;;6.47;;
75038;SDS011;63609;49.992;14.512;2024-02-28T09:20:31;15.93;;;8.23;;
75038;SDS011;63609;49.992;14.512;2024-02-28T09:25:25;9.68;;;4.68;;
75038;SDS011;63609;49.992;14.512;2024-02-28T09:28:16;17.30;;;8.93;;
75038;SDS011;63609;49.992;14.512;2024-02-28T09:30:43;15.65;;;8.40;;
75038;SDS011;63609;49.992;14.512;2024-02-28T09:33:18;16.50;;;8.70;;
75038;SDS011;63609;49.992;14.512;2024-02-28T09:35:46;19.00;;;9.00;;
75038;SDS011;63609;49.992;14.512;2024-02-28T09:38:14;20.35;;;9.25;;
75038;SDS011;63609;49.992;14.512;2024-02-28T09:40:41;17.70;;;10.20;;
75038;SDS011;63609;49.992;14.512;2024-02-28T09:43:15;16.13;;;9.20;;
75038;SDS011;63609;49.992;14.512;2024-02-28T09:45:49;16.80;;;9.15;;
75038;SDS011;63609;49.992;14.512;2024-02-28T09:48:16;18.42;;;8.55;;
75038;SDS011;63609;49.992;14.512;2024-02-28T09:50:45;21.55;;;9.73;;
75038;SDS011;63609;49.992;14.512;2024-02-28T09:53:12;19.60;;;9.38;;
75038;SDS011;63609;49.992;14.512;2024-02-28T09:58:07;20.35;;;9.68;;
75038;SDS011;63609;49.992;14.512;2024-02-28T10:00:35;15.23;;;8.05;;
75038;SDS011;63609;49.992;14.512;2024-02-28T10:03:04;17.88;;;8.35;;
75038;SDS011;63609;49.992;14.512;2024-02-28T10:05:33;16.90;;;9.35;;
75038;SDS011;63609;49.992;14.512;2024-02-28T10:08:01;16.40;;;7.90;;
75038;SDS011;63609;49.992;14.512;2024-02-28T10:10:28;18.73;;;9.40;;
75038;SDS011;63609;49.992;14.512;2024-02-28T10:12:58;14.38;;;8.00;;
75038;SDS011;63609;49.992;14.512;2024-02-28T10:15:26;16.83;;;8.35;;
75038;SDS011;63609;49.992;14.512;2024-02-28T10:17:56;17.17;;;9.35;;
75038;SDS011;63609;49.992;14.512;2024-02-28T10:20:23;18.83;;;9.07;;
75038;SDS011;63609;49.992;14.512;2024-02-28T10:22:52;17.75;;;9.52;;
75038;SDS011;63609;49.992;14.512;2024-02-28T10:25:19;20.80;;;10.15;;
75038;SDS011;63609;49.992;14.512;2024-02-28T10:27:46;17.35;;;8.27;;
75038;SDS011;63609;49.992;14.512;2024-02-28T10:30:14;19.25;;;9.77;;
75038;SDS011;63609;49.992;14.512;2024-02-28T10:32:49;16.83;;;8.43;;
75038;SDS011;63609;49.992;14.512;2024-02-28T10:35:17;15.65;;;8.73;;
75038;SDS011;63609;49.992;14.512;2024-02-28T10:37:51;16.23;;;8.90;;
75038;SDS011;63609;49.992;14.512;2024-02-28T10:40:22;14.95;;;7.95;;
75038;SDS011;63609;49.992;14.512;2024-02-28T10:42:49;16.73;;;8.07;;
75038;SDS011;63609;49.992;14.512;2024-02-28T10:45:17;18.15;;;8.63;;
75038;SDS011;63609;49.992;14.512;2024-02-28T10:48:08;13.73;;;8.00;;
75038;SDS011;63609;49.992;14.512;2024-02-28T10:50:38;16.58;;;9.23;;
75038;SDS011;63609;49.992;14.512;2024-02-28T10:53:04;16.55;;;8.57;;
75038;SDS011;63609;49.992;14.512;2024-02-28T10:55:40;15.50;;;8.98;;
75038;SDS011;63609;49.992;14.512;2024-02-28T10:58:08;14.40;;;8.40;;
75038;SDS011;63609;49.992;14.512;2024-02-28T11:00:45;15.85;;;8.38;;
75038;SDS011;63609;49.992;14.512;2024-02-28T11:03:15;13.70;;;7.68;;
75038;SDS011;63609;49.992;14.512;2024-02-28T11:05:44;13.50;;;6.95;;
75038;SDS011;63609;49.992;14.512;2024-02-28T11:08:21;10.85;;;5.68;;
75038;SDS011;63609;49.992;14.512;2024-02-28T11:13:24;15.20;;;8.32;;
75038;SDS011;63609;49.992;14.512;2024-02-28T11:15:52;15.45;;;7.22;;
75038;SDS011;63609;49.992;14.512;2024-02-28T11:18:22;17.05;;;8.57;;
75038;SDS011;63609;49.992;14.512;2024-02-28T11:20:49;16.17;;;8.43;;
75038;SDS011;63609;49.992;14.512;2024-02-28T11:23:17;15.15;;;8.63;;
75038;SDS011;63609;49.992;14.512;2024-02-28T11:25:44;16.58;;;8.02;;
75038;SDS011;63609;49.992;14.512;2024-02-28T11:28:11;13.68;;;8.48;;
75038;SDS011;63609;49.992;14.512;2024-02-28T11:30:38;11.95;;;6.85;;
75038;SDS011;63609;49.992;14.512;2024-02-28T11:33:05;14.10;;;7.57;;
75038;SDS011;63609;49.992;14.512;2024-02-28T11:35:35;12.73;;;7.43;;
75038;SDS011;63609;49.992;14.512;2024-02-28T11:38:06;11.40;;;6.68;;
75038;SDS011;63609;49.992;14.512;2024-02-28T11:40:33;12.77;;;6.80;;
75038;SDS011;63609;49.992;14.512;2024-02-28T11:43:00;12.98;;;7.15;;
75038;SDS011;63609;49.992;14.512;2024-02-28T11:45:30;16.67;;;7.88;;
75038;SDS011;63609;49.992;14.512;2024-02-28T11:47:58;12.98;;;7.93;;
75038;SDS011;63609;49.992;14.512;2024-02-28T11:50:25;15.52;;;8.50;;
75038;SDS011;63609;49.992;14.512;2024-02-28T11:52:52;13.85;;;8.18;;
75038;SDS011;63609;49.992;14.512;2024-02-28T11:55:21;14.77;;;8.25;;
75038;SDS011;63609;49.992;14.512;2024-02-28T11:57:51;15.85;;;8.35;;
75038;SDS011;63609;49.992;14.512;2024-02-28T12:00:18;14.55;;;8.00;;
75038;SDS011;63609;49.992;14.512;2024-02-28T12:02:45;12.38;;;6.28;;
75038;SDS011;63609;49.992;14.512;2024-02-28T12:05:15;18.70;;;9.85;;
75038;SDS011;63609;49.992;14.512;2024-02-28T12:07:43;16.23;;;9.10;;
75038;SDS011;63609;49.992;14.512;2024-02-28T12:10:09;18.88;;;9.75;;
75038;SDS011;63609;49.992;14.512;2024-02-28T12:12:38;14.18;;;8.73;;
75038;SDS011;63609;49.992;14.512;2024-02-28T12:15:06;19.73;;;8.35;;
75038;SDS011;63609;49.992;14.512;2024-02-28T12:17:33;15.02;;;8.10;;
75038;SDS011;63609;49.992;14.512;2024-02-28T12:20:02;16.10;;;9.13;;
75038;SDS011;63609;49.992;14.512;2024-02-28T12:22:29;12.38;;;7.85;;
75038;SDS011;63609;49.992;14.512;2024-02-28T12:24:56;17.83;;;8.73;;
75038;SDS011;63609;49.992;14.512;2024-02-28T12:27:23;16.45;;;7.97;;
75038;SDS011;63609;49.992;14.512;2024-02-28T12:29:50;13.23;;;8.05;;
75038;SDS011;63609;49.992;14.512;2024-02-28T12:32:17;15.18;;;8.20;;
75038;SDS011;63609;49.992;14.512;2024-02-28T12:34:45;16.50;;;7.47;;
75038;SDS011;63609;49.992;14.512;2024-02-28T12:37:12;14.15;;;7.75;;
75038;SDS011;63609;49.992;14.512;2024-02-28T12:39:39;13.50;;;6.75;;
75038;SDS011;63609;49.992;14.512;2024-02-28T12:42:06;14.50;;;7.80;;
75038;SDS011;63609;49.992;14.512;2024-02-28T12:44:33;15.10;;;7.30;;
75038;SDS011;63609;49.992;14.512;2024-02-28T12:47:00;13.57;;;8.10;;
75038;SDS011;63609;49.992;14.512;2024-02-28T12:49:27;13.80;;;7.45;;
75038;SDS011;63609;49.992;14.512;2024-02-28T12:51:54;13.73;;;7.97;;
75038;SDS011;63609;49.992;14.512;2024-02-28T12:54:21;13.95;;;7.53;;
75038;SDS011;63609;49.992;14.512;2024-02-28T12:56:48;18.85;;;8.15;;
75038;SDS011;63609;49.992;14.512;2024-02-28T12:59:15;13.43;;;6.53;;
75038;SDS011;63609;49.992;14.512;2024-02-28T13:01:42;14.35;;;7.90;;
75038;SDS011;63609;49.992;14.512;2024-02-28T13:04:10;16.85;;;9.15;;
75038;SDS011;63609;49.992;14.512;2024-02-28T13:06:37;16.90;;;7.80;;
75038;SDS011;63609;49.992;14.512;2024-02-28T13:09:05;12.13;;;8.02;;
75038;SDS011;63609;49.992;14.512;2024-02-28T13:11:39;14.10;;;8.57;;
75038;SDS011;63609;49.992;14.512;2024-02-28T13:14:06;15.75;;;8.20;;
75038;SDS011;63609;49.992;14.512;2024-02-28T13:16:35;13.68;;;8.27;;
75038;SDS011;63609;49.992;14.512;2024-02-28T13:19:02;13.73;;;8.45;;
75038;SDS011;63609;49.992;14.512;2024-02-28T13:21:31;16.27;;;8.63;;
75038;SDS011;63609;49.992;14.512;2024-02-28T13:24:01;13.55;;;8.27;;
75038;SDS011;63609;49.992;14.512;2024-02-28T13:26:28;15.18;;;8.50;;
75038;SDS011;63609;49.992;14.512;2024-02-28T13:28:56;14.38;;;7.93;;
75038;SDS011;63609;49.992;14.512;2024-02-28T13:31:23;15.05;;;7.97;;
75038;SDS011;63609;49.992;14.512;2024-02-28T13:33:50;14.00;;;8.15;;
75038;SDS011;63609;49.992;14.512;2024-02-28T13:36:17;17.10;;;8.40;;
75038;SDS011;63609;49.992;14.512;2024-02-28T13:38:44;15.50;;;8.50;;
75038;SDS011;63609;49.992;14.512;2024-02-28T13:41:11;15.18;;;8.85;;
75038;SDS011;63609;49.992;14.512;2024-02-28T13:43:38;14.75;;;8.48;;
75038;SDS011;63609;49.992;14.512;2024-02-28T13:46:05;12.60;;;7.18;;
75038;SDS011;63609;49.992;14.512;2024-02-28T13:48:33;15.00;;;8.27;;
75038;SDS011;63609;49.992;14.512;2024-02-28T13:51:00;16.92;;;8.70;;
75038;SDS011;63609;49.992;14.512;2024-02-28T13:53:28;18.83;;;9.30;;
75038;SDS011;63609;49.992;14.512;2024-02-28T13:55:55;22.00;;;10.18;;
75038;SDS011;63609;49.992;14.512;2024-02-28T13:58:25;18.42;;;8.88;;
75038;SDS011;63609;49.992;14.512;2024-02-28T14:01:04;17.67;;;10.35;;
75038;SDS011;63609;49.992;14.512;2024-02-28T14:03:33;19.15;;;9.80;;
75038;SDS011;63609;49.992;14.512;2024-02-28T14:06:00;20.92;;;10.30;;
75038;SDS011;63609;49.992;14.512;2024-02-28T14:08:28;18.38;;;9.50;;
75038;SDS011;63609;49.992;14.512;2024-02-28T14:11:01;17.85;;;9.57;;
75038;SDS011;63609;49.992;14.512;2024-02-28T14:13:29;18.38;;;8.75;;
75038;SDS011;63609;49.992;14.512;2024-02-28T14:15:56;18.88;;;10.13;;
75038;SDS011;63609;49.992;14.512;2024-02-28T14:18:23;21.92;;;10.60;;
75038;SDS011;63609;49.992;14.512;2024-02-28T14:20:50;21.10;;;10.50;;
75038;SDS011;63609;49.992;14.512;2024-02-28T14:23:17;18.10;;;9.82;;
75038;SDS011;63609;49.992;14.512;2024-02-28T14:25:44;19.52;;;10.15;;
75038;SDS011;63609;49.992;14.512;2024-02-28T14:28:11;18.45;;;9.75;;
75038;SDS011;63609;49.992;14.512;2024-02-28T14:30:39;20.48;;;10.13;;
75038;SDS011;63609;49.992;14.512;2024-02-28T14:33:06;21.90;;;10.02;;
75038;SDS011;63609;49.992;14.512;2024-02-28T14:35:35;21.60;;;8.88;;
75038;SDS011;63609;49.992;14.512;2024-02-28T14:38:06;15.88;;;7.72;;
75038;SDS011;63609;49.992;14.512;2024-02-28T14:40:33;20.98;;;11.20;;
75038;SDS011;63609;49.992;14.512;2024-02-28T14:43:01;17.08;;;9.80;;
75038;SDS011;63609;49.992;14.512;2024-02-28T14:45:28;19.38;;;9.00;;
75038;SDS011;63609;49.992;14.512;2024-02-28T14:47:55;17.00;;;9.73;;
75038;SDS011;63609;49.992;14.512;2024-02-28T14:50:22;21.15;;;10.73;;
75038;SDS011;63609;49.992;14.512;2024-02-28T14:52:50;17.88;;;10.25;;
75038;SDS011;63609;49.992;14.512;2024-02-28T14:57:43;19.90;;;9.23;;
75038;SDS011;63609;49.992;14.512;2024-02-28T15:00:10;19.50;;;10.63;;
75038;SDS011;63609;49.992;14.512;2024-02-28T15:02:42;23.90;;;12.13;;
75038;SDS011;63609;49.992;14.512;2024-02-28T15:05:10;22.00;;;11.80;;
75038;SDS011;63609;49.992;14.512;2024-02-28T15:07:38;25.35;;;11.82;;
75038;SDS011;63609;49.992;14.512;2024-02-28T15:10:06;25.73;;;12.63;;
75038;SDS011;63609;49.992;14.512;2024-02-28T15:12:35;21.00;;;11.60;;
75038;SDS011;63609;49.992;14.512;2024-02-28T15:15:04;23.05;;;12.15;;
75038;SDS011;63609;49.992;14.512;2024-02-28T15:17:32;22.60;;;11.80;;
75038;SDS011;63609;49.992;14.512;2024-02-28T15:20:00;24.55;;;11.30;;